sensor_id;sensor_type;location;lat;lon;timestamp;temperature;humidity
27413;DHT22;14871;52.702;5.230;2022-11-27T00:01:00;8.70;99.90
27413;DHT22;14871;52.702;5.230;2022-11-27T00:03:32;8.70;99.90
27413;DHT22;14871;52.702;5.230;2022-11-27T00:05:57;8.70;99.90
27413;DHT22;14871;52.702;5.230;2022-11-27T00:08:23;8.80;99.90
27413;DHT22;14871;52.702;5.230;2022-11-27T00:10:49;8.90;99.90
27413;DHT22;14871;52.702;5.230;2022-11-27T00:13:15;8.70;99.90
27413;DHT22;14871;52.702;5.230;2022-11-27T00:15:40;8.80;99.90
27413;DHT22;14871;52.702;5.230;2022-11-27T00:18:06;8.70;99.90
27413;DHT22;14871;52.702;5.230;2022-11-27T00:20:31;8.90;99.90
27413;DHT22;14871;52.702;5.230;2022-11-27T00:22:57;8.90;99.90
27413;DHT22;14871;52.702;5.230;2022-11-27T00:25:23;8.70;99.90
27413;DHT22;14871;52.702;5.230;2022-11-27T00:27:48;8.80;99.90
27413;DHT22;14871;52.702;5.230;2022-11-27T00:30:14;8.70;99.90
27413;DHT22;14871;52.702;5.230;2022-11-27T00:32:39;8.50;99.90
27413;DHT22;14871;52.702;5.230;2022-11-27T00:35:05;8.50;99.90
27413;DHT22;14871;52.702;5.230;2022-11-27T00:37:31;8.50;99.90
27413;DHT22;14871;52.702;5.230;2022-11-27T00:39:56;8.40;99.90
27413;DHT22;14871;52.702;5.230;2022-11-27T00:42:22;8.40;99.90
27413;DHT22;14871;52.702;5.230;2022-11-27T00:44:47;8.60;99.90
27413;DHT22;14871;52.702;5.230;2022-11-27T00:47:13;8.50;99.90
27413;DHT22;14871;52.702;5.230;2022-11-27T00:49:38;8.50;99.90
27413;DHT22;14871;52.702;5.230;2022-11-27T00:52:03;8.40;99.90
27413;DHT22;14871;52.702;5.230;2022-11-27T00:54:29;8.50;99.90
27413;DHT22;14871;52.702;5.230;2022-11-27T00:56:54;8.80;99.90
27413;DHT22;14871;52.702;5.230;2022-11-27T00:59:20;8.70;99.90
27413;DHT22;14871;52.702;5.230;2022-11-27T01:01:45;8.70;99.90
27413;DHT22;14871;52.702;5.230;2022-11-27T01:04:12;8.60;99.90
27413;DHT22;14871;52.702;5.230;2022-11-27T01:06:38;8.70;99.90
27413;DHT22;14871;52.702;5.230;2022-11-27T01:09:04;8.70;99.90
27413;DHT22;14871;52.702;5.230;2022-11-27T01:11:30;8.40;99.90
27413;DHT22;14871;52.702;5.230;2022-11-27T01:13:56;8.50;99.90
27413;DHT22;14871;52.702;5.230;2022-11-27T01:16:24;8.50;99.90
27413;DHT22;14871;52.702;5.230;2022-11-27T01:18:50;8.40;99.90
27413;DHT22;14871;52.702;5.230;2022-11-27T01:21:17;8.50;99.90
27413;DHT22;14871;52.702;5.230;2022-11-27T01:23:42;8.50;99.90
27413;DHT22;14871;52.702;5.230;2022-11-27T01:26:08;8.40;99.90
27413;DHT22;14871;52.702;5.230;2022-11-27T01:28:34;8.40;99.90
27413;DHT22;14871;52.702;5.230;2022-11-27T01:31:13;8.50;99.90
27413;DHT22;14871;52.702;5.230;2022-11-27T01:33:39;8.50;99.90
27413;DHT22;14871;52.702;5.230;2022-11-27T01:36:05;8.60;99.90
27413;DHT22;14871;52.702;5.230;2022-11-27T01:38:31;8.60;99.90
27413;DHT22;14871;52.702;5.230;2022-11-27T01:41:02;8.40;99.90
27413;DHT22;14871;52.702;5.230;2022-11-27T01:43:35;8.50;99.90
27413;DHT22;14871;52.702;5.230;2022-11-27T01:46:00;8.40;99.90
27413;DHT22;14871;52.702;5.230;2022-11-27T01:48:26;8.40;99.90
27413;DHT22;14871;52.702;5.230;2022-11-27T01:50:51;8.30;99.90
27413;DHT22;14871;52.702;5.230;2022-11-27T01:53:17;8.50;99.90
27413;DHT22;14871;52.702;5.230;2022-11-27T01:55:47;8.50;99.90
27413;DHT22;14871;52.702;5.230;2022-11-27T01:58:18;8.50;99.90
27413;DHT22;14871;52.702;5.230;2022-11-27T02:00:45;8.40;99.90
27413;DHT22;14871;52.702;5.230;2022-11-27T02:03:11;8.30;99.90
27413;DHT22;14871;52.702;5.230;2022-11-27T02:05:36;8.20;99.90
27413;DHT22;14871;52.702;5.230;2022-11-27T02:08:04;8.20;99.90
27413;DHT22;14871;52.702;5.230;2022-11-27T02:10:51;8.20;99.90
27413;DHT22;14871;52.702;5.230;2022-11-27T02:13:27;8.20;99.90
27413;DHT22;14871;52.702;5.230;2022-11-27T02:18:29;8.30;99.90
27413;DHT22;14871;52.702;5.230;2022-11-27T02:21:06;8.40;99.90
27413;DHT22;14871;52.702;5.230;2022-11-27T02:26:23;8.50;99.90
27413;DHT22;14871;52.702;5.230;2022-11-27T02:34:03;8.20;99.90
27413;DHT22;14871;52.702;5.230;2022-11-27T02:36:30;8.30;99.90
27413;DHT22;14871;52.702;5.230;2022-11-27T02:39:02;8.40;99.90
27413;DHT22;14871;52.702;5.230;2022-11-27T02:41:29;8.40;99.90
27413;DHT22;14871;52.702;5.230;2022-11-27T02:43:56;8.30;99.90
27413;DHT22;14871;52.702;5.230;2022-11-27T02:46:23;8.30;99.90
27413;DHT22;14871;52.702;5.230;2022-11-27T02:48:57;8.30;99.90
27413;DHT22;14871;52.702;5.230;2022-11-27T02:51:45;8.20;99.90
27413;DHT22;14871;52.702;5.230;2022-11-27T02:54:09;8.10;99.90
27413;DHT22;14871;52.702;5.230;2022-11-27T02:56:37;8.10;99.90
27413;DHT22;14871;52.702;5.230;2022-11-27T02:59:04;8.10;99.90
27413;DHT22;14871;52.702;5.230;2022-11-27T03:01:33;8.20;99.90
27413;DHT22;14871;52.702;5.230;2022-11-27T03:04:00;8.20;99.90
27413;DHT22;14871;52.702;5.230;2022-11-27T03:06:32;8.20;99.90
27413;DHT22;14871;52.702;5.230;2022-11-27T03:09:08;8.10;99.90
27413;DHT22;14871;52.702;5.230;2022-11-27T03:11:34;8.20;99.90
27413;DHT22;14871;52.702;5.230;2022-11-27T03:14:04;8.10;99.90
27413;DHT22;14871;52.702;5.230;2022-11-27T03:19:17;8.20;99.90
27413;DHT22;14871;52.702;5.230;2022-11-27T03:21:54;8.30;99.90
27413;DHT22;14871;52.702;5.230;2022-11-27T03:24:20;8.20;99.90
27413;DHT22;14871;52.702;5.230;2022-11-27T03:26:46;8.30;99.90
27413;DHT22;14871;52.702;5.230;2022-11-27T03:29:14;8.10;99.90
27413;DHT22;14871;52.702;5.230;2022-11-27T03:31:41;8.10;99.90
27413;DHT22;14871;52.702;5.230;2022-11-27T03:34:06;8.50;99.90
27413;DHT22;14871;52.702;5.230;2022-11-27T03:36:32;8.40;99.90
27413;DHT22;14871;52.702;5.230;2022-11-27T03:38:57;8.40;99.90
27413;DHT22;14871;52.702;5.230;2022-11-27T03:41:25;8.20;99.90
27413;DHT22;14871;52.702;5.230;2022-11-27T03:46:39;8.20;99.90
27413;DHT22;14871;52.702;5.230;2022-11-27T03:49:13;8.20;99.90
27413;DHT22;14871;52.702;5.230;2022-11-27T03:51:50;8.20;99.90
27413;DHT22;14871;52.702;5.230;2022-11-27T03:54:34;8.10;99.90
27413;DHT22;14871;52.702;5.230;2022-11-27T03:57:27;8.10;99.90
27413;DHT22;14871;52.702;5.230;2022-11-27T03:59:49;8.30;99.90
27413;DHT22;14871;52.702;5.230;2022-11-27T04:02:26;8.10;99.90
27413;DHT22;14871;52.702;5.230;2022-11-27T04:04:52;8.20;99.90
27413;DHT22;14871;52.702;5.230;2022-11-27T04:07:17;8.40;99.90
27413;DHT22;14871;52.702;5.230;2022-11-27T04:09:43;8.40;99.90
27413;DHT22;14871;52.702;5.230;2022-11-27T04:12:08;8.40;99.90
27413;DHT22;14871;52.702;5.230;2022-11-27T04:14:34;8.50;99.90
27413;DHT22;14871;52.702;5.230;2022-11-27T04:16:59;8.30;99.90
27413;DHT22;14871;52.702;5.230;2022-11-27T04:19:25;8.30;99.90
27413;DHT22;14871;52.702;5.230;2022-11-27T04:21:50;8.30;99.90
27413;DHT22;14871;52.702;5.230;2022-11-27T04:24:15;8.50;99.90
27413;DHT22;14871;52.702;5.230;2022-11-27T04:26:41;8.70;99.90
27413;DHT22;14871;52.702;5.230;2022-11-27T04:29:06;8.80;99.90
27413;DHT22;14871;52.702;5.230;2022-11-27T04:31:32;8.60;99.90
27413;DHT22;14871;52.702;5.230;2022-11-27T04:33:57;8.70;99.90
27413;DHT22;14871;52.702;5.230;2022-11-27T04:36:23;8.70;99.90
27413;DHT22;14871;52.702;5.230;2022-11-27T04:38:48;8.90;99.90
27413;DHT22;14871;52.702;5.230;2022-11-27T04:41:14;8.70;99.90
27413;DHT22;14871;52.702;5.230;2022-11-27T04:43:39;8.70;99.90
27413;DHT22;14871;52.702;5.230;2022-11-27T04:46:05;8.70;99.90
27413;DHT22;14871;52.702;5.230;2022-11-27T04:48:30;8.70;99.90
27413;DHT22;14871;52.702;5.230;2022-11-27T04:50:55;8.80;99.90
27413;DHT22;14871;52.702;5.230;2022-11-27T04:53:21;8.80;99.90
27413;DHT22;14871;52.702;5.230;2022-11-27T04:55:46;8.90;99.90
27413;DHT22;14871;52.702;5.230;2022-11-27T04:58:12;8.90;99.90
27413;DHT22;14871;52.702;5.230;2022-11-27T05:00:37;8.70;99.90
27413;DHT22;14871;52.702;5.230;2022-11-27T05:03:03;8.70;99.90
27413;DHT22;14871;52.702;5.230;2022-11-27T05:05:28;8.60;99.90
27413;DHT22;14871;52.702;5.230;2022-11-27T05:07:54;8.40;99.90
27413;DHT22;14871;52.702;5.230;2022-11-27T05:10:20;8.50;99.90
27413;DHT22;14871;52.702;5.230;2022-11-27T05:12:45;8.60;99.90
27413;DHT22;14871;52.702;5.230;2022-11-27T05:15:11;8.80;99.90
27413;DHT22;14871;52.702;5.230;2022-11-27T05:17:36;8.80;99.90
27413;DHT22;14871;52.702;5.230;2022-11-27T05:20:02;8.90;99.90
27413;DHT22;14871;52.702;5.230;2022-11-27T05:22:27;9.00;99.90
27413;DHT22;14871;52.702;5.230;2022-11-27T05:24:53;8.90;99.90
27413;DHT22;14871;52.702;5.230;2022-11-27T05:27:19;8.70;99.90
27413;DHT22;14871;52.702;5.230;2022-11-27T05:29:44;8.80;99.90
27413;DHT22;14871;52.702;5.230;2022-11-27T05:32:09;8.90;99.90
27413;DHT22;14871;52.702;5.230;2022-11-27T05:34:35;8.90;99.90
27413;DHT22;14871;52.702;5.230;2022-11-27T05:37:01;8.90;99.90
27413;DHT22;14871;52.702;5.230;2022-11-27T05:39:26;8.80;99.90
27413;DHT22;14871;52.702;5.230;2022-11-27T05:41:52;8.80;99.90
27413;DHT22;14871;52.702;5.230;2022-11-27T05:44:17;8.90;99.90
27413;DHT22;14871;52.702;5.230;2022-11-27T05:46:42;9.00;99.90
27413;DHT22;14871;52.702;5.230;2022-11-27T05:49:12;9.00;99.90
27413;DHT22;14871;52.702;5.230;2022-11-27T05:51:38;9.00;99.90
27413;DHT22;14871;52.702;5.230;2022-11-27T05:54:03;9.00;99.90
27413;DHT22;14871;52.702;5.230;2022-11-27T05:56:29;9.10;99.90
27413;DHT22;14871;52.702;5.230;2022-11-27T05:58:54;9.00;99.90
27413;DHT22;14871;52.702;5.230;2022-11-27T06:01:20;9.00;99.90
27413;DHT22;14871;52.702;5.230;2022-11-27T06:03:45;9.10;99.90
27413;DHT22;14871;52.702;5.230;2022-11-27T06:06:12;8.90;99.90
27413;DHT22;14871;52.702;5.230;2022-11-27T06:08:38;8.80;99.90
27413;DHT22;14871;52.702;5.230;2022-11-27T06:11:08;8.80;99.90
27413;DHT22;14871;52.702;5.230;2022-11-27T06:13:33;8.70;99.90
27413;DHT22;14871;52.702;5.230;2022-11-27T06:16:02;8.70;99.90
27413;DHT22;14871;52.702;5.230;2022-11-27T06:18:28;8.60;99.90
27413;DHT22;14871;52.702;5.230;2022-11-27T06:20:53;8.60;99.90
27413;DHT22;14871;52.702;5.230;2022-11-27T06:23:19;8.80;99.90
27413;DHT22;14871;52.702;5.230;2022-11-27T06:25:46;8.80;99.90
27413;DHT22;14871;52.702;5.230;2022-11-27T06:28:12;8.60;99.90
27413;DHT22;14871;52.702;5.230;2022-11-27T06:30:37;8.60;99.90
27413;DHT22;14871;52.702;5.230;2022-11-27T06:33:03;8.50;99.90
27413;DHT22;14871;52.702;5.230;2022-11-27T06:35:28;8.50;99.90
27413;DHT22;14871;52.702;5.230;2022-11-27T06:37:53;8.40;99.90
27413;DHT22;14871;52.702;5.230;2022-11-27T06:40:19;8.60;99.90
27413;DHT22;14871;52.702;5.230;2022-11-27T06:42:44;8.40;99.90
27413;DHT22;14871;52.702;5.230;2022-11-27T06:45:10;8.30;99.90
27413;DHT22;14871;52.702;5.230;2022-11-27T06:47:35;8.20;99.90
27413;DHT22;14871;52.702;5.230;2022-11-27T06:50:01;8.30;99.90
27413;DHT22;14871;52.702;5.230;2022-11-27T06:52:26;8.10;99.90
27413;DHT22;14871;52.702;5.230;2022-11-27T06:54:52;8.20;99.90
27413;DHT22;14871;52.702;5.230;2022-11-27T06:57:17;8.10;99.90
27413;DHT22;14871;52.702;5.230;2022-11-27T06:59:43;8.30;99.90
27413;DHT22;14871;52.702;5.230;2022-11-27T07:02:10;8.20;99.90
27413;DHT22;14871;52.702;5.230;2022-11-27T07:04:37;8.50;99.90
27413;DHT22;14871;52.702;5.230;2022-11-27T07:07:03;8.30;99.90
27413;DHT22;14871;52.702;5.230;2022-11-27T07:09:28;8.10;99.90
27413;DHT22;14871;52.702;5.230;2022-11-27T07:11:53;8.10;99.90
27413;DHT22;14871;52.702;5.230;2022-11-27T07:14:19;8.10;99.90
27413;DHT22;14871;52.702;5.230;2022-11-27T07:16:44;8.40;99.90
27413;DHT22;14871;52.702;5.230;2022-11-27T07:19:10;8.20;99.90
27413;DHT22;14871;52.702;5.230;2022-11-27T07:21:36;8.10;99.90
27413;DHT22;14871;52.702;5.230;2022-11-27T07:24:02;8.10;99.90
27413;DHT22;14871;52.702;5.230;2022-11-27T07:26:28;8.00;99.90
27413;DHT22;14871;52.702;5.230;2022-11-27T07:28:54;8.00;99.90
27413;DHT22;14871;52.702;5.230;2022-11-27T07:31:21;8.10;99.90
27413;DHT22;14871;52.702;5.230;2022-11-27T07:33:46;8.30;99.90
27413;DHT22;14871;52.702;5.230;2022-11-27T07:36:13;8.40;99.90
27413;DHT22;14871;52.702;5.230;2022-11-27T07:38:39;8.30;99.90
27413;DHT22;14871;52.702;5.230;2022-11-27T07:41:05;8.40;99.90
27413;DHT22;14871;52.702;5.230;2022-11-27T07:43:31;8.50;99.90
27413;DHT22;14871;52.702;5.230;2022-11-27T07:45:57;8.50;99.90
27413;DHT22;14871;52.702;5.230;2022-11-27T07:48:23;8.40;99.90
27413;DHT22;14871;52.702;5.230;2022-11-27T07:50:48;8.40;99.90
27413;DHT22;14871;52.702;5.230;2022-11-27T07:53:14;8.50;99.90
27413;DHT22;14871;52.702;5.230;2022-11-27T07:55:40;8.40;99.90
27413;DHT22;14871;52.702;5.230;2022-11-27T07:58:06;8.40;99.90
27413;DHT22;14871;52.702;5.230;2022-11-27T08:00:32;8.50;99.90
27413;DHT22;14871;52.702;5.230;2022-11-27T08:02:58;8.60;99.90
27413;DHT22;14871;52.702;5.230;2022-11-27T08:05:24;8.60;99.90
27413;DHT22;14871;52.702;5.230;2022-11-27T08:07:49;8.60;99.90
27413;DHT22;14871;52.702;5.230;2022-11-27T08:10:15;8.40;99.90
27413;DHT22;14871;52.702;5.230;2022-11-27T08:12:40;8.50;99.90
27413;DHT22;14871;52.702;5.230;2022-11-27T08:15:06;8.40;99.90
27413;DHT22;14871;52.702;5.230;2022-11-27T08:17:31;8.40;99.90
27413;DHT22;14871;52.702;5.230;2022-11-27T08:19:57;8.40;99.90
27413;DHT22;14871;52.702;5.230;2022-11-27T08:22:22;8.40;99.90
27413;DHT22;14871;52.702;5.230;2022-11-27T08:24:48;8.30;99.90
27413;DHT22;14871;52.702;5.230;2022-11-27T08:27:14;8.30;99.90
27413;DHT22;14871;52.702;5.230;2022-11-27T08:29:40;8.40;99.90
27413;DHT22;14871;52.702;5.230;2022-11-27T08:32:06;8.40;99.90
27413;DHT22;14871;52.702;5.230;2022-11-27T08:34:31;8.40;99.90
27413;DHT22;14871;52.702;5.230;2022-11-27T08:36:57;8.40;99.90
27413;DHT22;14871;52.702;5.230;2022-11-27T08:39:22;8.30;99.90
27413;DHT22;14871;52.702;5.230;2022-11-27T08:41:50;8.30;99.90
27413;DHT22;14871;52.702;5.230;2022-11-27T08:44:16;8.10;99.90
27413;DHT22;14871;52.702;5.230;2022-11-27T08:46:42;8.10;99.90
27413;DHT22;14871;52.702;5.230;2022-11-27T08:49:07;8.30;99.90
27413;DHT22;14871;52.702;5.230;2022-11-27T08:51:33;8.20;99.90
27413;DHT22;14871;52.702;5.230;2022-11-27T08:53:58;8.50;99.90
27413;DHT22;14871;52.702;5.230;2022-11-27T08:56:24;8.60;99.90
27413;DHT22;14871;52.702;5.230;2022-11-27T08:58:50;8.40;99.90
27413;DHT22;14871;52.702;5.230;2022-11-27T09:01:18;8.50;99.90
27413;DHT22;14871;52.702;5.230;2022-11-27T09:03:44;8.50;99.90
27413;DHT22;14871;52.702;5.230;2022-11-27T09:06:10;8.40;99.90
27413;DHT22;14871;52.702;5.230;2022-11-27T09:08:37;8.30;99.90
27413;DHT22;14871;52.702;5.230;2022-11-27T09:11:03;8.40;99.90
27413;DHT22;14871;52.702;5.230;2022-11-27T09:13:29;8.50;99.90
27413;DHT22;14871;52.702;5.230;2022-11-27T09:15:55;8.50;99.90
27413;DHT22;14871;52.702;5.230;2022-11-27T09:18:20;8.30;99.90
27413;DHT22;14871;52.702;5.230;2022-11-27T09:20:53;8.60;99.90
27413;DHT22;14871;52.702;5.230;2022-11-27T09:23:18;8.50;99.90
27413;DHT22;14871;52.702;5.230;2022-11-27T09:25:44;8.40;99.90
27413;DHT22;14871;52.702;5.230;2022-11-27T09:28:09;8.50;99.90
27413;DHT22;14871;52.702;5.230;2022-11-27T09:30:35;8.40;99.90
27413;DHT22;14871;52.702;5.230;2022-11-27T09:33:01;8.40;99.90
27413;DHT22;14871;52.702;5.230;2022-11-27T09:35:27;8.40;99.90
27413;DHT22;14871;52.702;5.230;2022-11-27T09:37:52;8.40;99.90
27413;DHT22;14871;52.702;5.230;2022-11-27T09:40:17;8.50;99.90
27413;DHT22;14871;52.702;5.230;2022-11-27T09:42:48;8.40;99.90
27413;DHT22;14871;52.702;5.230;2022-11-27T09:45:14;8.40;99.90
27413;DHT22;14871;52.702;5.230;2022-11-27T09:47:54;8.70;99.90
27413;DHT22;14871;52.702;5.230;2022-11-27T09:50:28;8.50;99.90
27413;DHT22;14871;52.702;5.230;2022-11-27T09:55:24;8.50;99.90
27413;DHT22;14871;52.702;5.230;2022-11-27T10:00:34;8.50;99.90
27413;DHT22;14871;52.702;5.230;2022-11-27T10:03:00;8.60;99.90
27413;DHT22;14871;52.702;5.230;2022-11-27T10:05:28;8.40;99.90
27413;DHT22;14871;52.702;5.230;2022-11-27T10:13:09;8.40;99.90
27413;DHT22;14871;52.702;5.230;2022-11-27T10:15:41;8.40;99.90
27413;DHT22;14871;52.702;5.230;2022-11-27T10:18:14;8.60;99.90
27413;DHT22;14871;52.702;5.230;2022-11-27T10:20:48;8.60;99.90
27413;DHT22;14871;52.702;5.230;2022-11-27T10:30:40;8.50;99.90
27413;DHT22;14871;52.702;5.230;2022-11-27T10:33:14;8.50;99.90
27413;DHT22;14871;52.702;5.230;2022-11-27T10:35:41;8.60;99.90
27413;DHT22;14871;52.702;5.230;2022-11-27T10:43:06;8.60;99.90
27413;DHT22;14871;52.702;5.230;2022-11-27T10:45:39;8.80;99.90
27413;DHT22;14871;52.702;5.230;2022-11-27T10:48:08;8.70;99.90
27413;DHT22;14871;52.702;5.230;2022-11-27T10:50:34;8.90;99.90
27413;DHT22;14871;52.702;5.230;2022-11-27T10:53:02;8.70;99.90
27413;DHT22;14871;52.702;5.230;2022-11-27T11:00:59;9.00;99.90
27413;DHT22;14871;52.702;5.230;2022-11-27T11:03:25;8.70;99.90
27413;DHT22;14871;52.702;5.230;2022-11-27T11:05:53;8.70;99.90
27413;DHT22;14871;52.702;5.230;2022-11-27T11:08:20;8.80;99.90
27413;DHT22;14871;52.702;5.230;2022-11-27T11:10:53;9.00;99.90
27413;DHT22;14871;52.702;5.230;2022-11-27T11:13:20;9.00;99.90
27413;DHT22;14871;52.702;5.230;2022-11-27T11:18:16;9.20;99.90
27413;DHT22;14871;52.702;5.230;2022-11-27T11:20:43;9.20;99.90
27413;DHT22;14871;52.702;5.230;2022-11-27T11:23:17;9.10;99.90
27413;DHT22;14871;52.702;5.230;2022-11-27T11:25:47;9.10;99.90
27413;DHT22;14871;52.702;5.230;2022-11-27T11:28:15;9.10;99.90
27413;DHT22;14871;52.702;5.230;2022-11-27T11:30:41;9.20;99.90
27413;DHT22;14871;52.702;5.230;2022-11-27T11:33:09;9.30;99.90
27413;DHT22;14871;52.702;5.230;2022-11-27T11:35:37;9.40;99.90
27413;DHT22;14871;52.702;5.230;2022-11-27T11:38:03;9.20;99.90
27413;DHT22;14871;52.702;5.230;2022-11-27T11:40:30;9.30;99.90
27413;DHT22;14871;52.702;5.230;2022-11-27T11:43:00;9.30;99.90
27413;DHT22;14871;52.702;5.230;2022-11-27T11:45:30;9.20;99.90
27413;DHT22;14871;52.702;5.230;2022-11-27T11:47:56;9.50;99.90
27413;DHT22;14871;52.702;5.230;2022-11-27T11:55:36;9.00;99.90
27413;DHT22;14871;52.702;5.230;2022-11-27T12:00:40;9.10;99.90
27413;DHT22;14871;52.702;5.230;2022-11-27T12:03:19;9.00;99.90
27413;DHT22;14871;52.702;5.230;2022-11-27T12:15:58;9.10;99.90
27413;DHT22;14871;52.702;5.230;2022-11-27T12:26:04;9.00;99.90
27413;DHT22;14871;52.702;5.230;2022-11-27T12:41:31;9.10;99.90
27413;DHT22;14871;52.702;5.230;2022-11-27T12:44:01;9.30;99.90
27413;DHT22;14871;52.702;5.230;2022-11-27T12:49:00;9.30;99.90
27413;DHT22;14871;52.702;5.230;2022-11-27T12:54:19;9.40;99.90
27413;DHT22;14871;52.702;5.230;2022-11-27T12:56:47;9.40;99.90
27413;DHT22;14871;52.702;5.230;2022-11-27T12:59:17;9.60;99.90
27413;DHT22;14871;52.702;5.230;2022-11-27T13:04:31;9.50;99.90
27413;DHT22;14871;52.702;5.230;2022-11-27T13:07:02;9.40;99.90
27413;DHT22;14871;52.702;5.230;2022-11-27T13:11:56;9.30;99.90
27413;DHT22;14871;52.702;5.230;2022-11-27T13:14:23;9.20;99.90
27413;DHT22;14871;52.702;5.230;2022-11-27T13:16:55;9.30;99.90
27413;DHT22;14871;52.702;5.230;2022-11-27T13:21:52;9.20;99.90
27413;DHT22;14871;52.702;5.230;2022-11-27T13:24:18;9.30;99.90
27413;DHT22;14871;52.702;5.230;2022-11-27T13:29:22;8.90;99.90
27413;DHT22;14871;52.702;5.230;2022-11-27T13:31:51;9.00;99.90
27413;DHT22;14871;52.702;5.230;2022-11-27T13:34:22;9.00;99.90
27413;DHT22;14871;52.702;5.230;2022-11-27T13:36:56;9.10;99.90
27413;DHT22;14871;52.702;5.230;2022-11-27T13:39:29;9.20;99.90
27413;DHT22;14871;52.702;5.230;2022-11-27T13:41:59;9.00;99.90
27413;DHT22;14871;52.702;5.230;2022-11-27T13:44:25;9.00;99.90
27413;DHT22;14871;52.702;5.230;2022-11-27T13:46:51;8.90;99.90
27413;DHT22;14871;52.702;5.230;2022-11-27T13:49:22;9.00;99.90
27413;DHT22;14871;52.702;5.230;2022-11-27T13:51:49;9.00;99.90
27413;DHT22;14871;52.702;5.230;2022-11-27T13:54:15;8.80;99.90
27413;DHT22;14871;52.702;5.230;2022-11-27T13:56:42;8.80;99.90
27413;DHT22;14871;52.702;5.230;2022-11-27T13:59:15;9.10;99.90
27413;DHT22;14871;52.702;5.230;2022-11-27T14:01:51;9.00;99.90
27413;DHT22;14871;52.702;5.230;2022-11-27T14:04:17;9.10;99.90
27413;DHT22;14871;52.702;5.230;2022-11-27T14:06:49;9.20;99.90
27413;DHT22;14871;52.702;5.230;2022-11-27T14:09:15;9.10;99.90
27413;DHT22;14871;52.702;5.230;2022-11-27T14:11:41;9.10;99.90
27413;DHT22;14871;52.702;5.230;2022-11-27T14:14:13;9.30;99.90
27413;DHT22;14871;52.702;5.230;2022-11-27T14:16:39;9.40;99.90
27413;DHT22;14871;52.702;5.230;2022-11-27T14:19:19;9.30;99.90
27413;DHT22;14871;52.702;5.230;2022-11-27T14:21:46;9.20;99.90
27413;DHT22;14871;52.702;5.230;2022-11-27T14:24:22;9.30;99.90
27413;DHT22;14871;52.702;5.230;2022-11-27T14:26:47;9.20;99.90
27413;DHT22;14871;52.702;5.230;2022-11-27T14:29:13;9.20;99.90
27413;DHT22;14871;52.702;5.230;2022-11-27T14:31:39;9.10;99.90
27413;DHT22;14871;52.702;5.230;2022-11-27T14:34:05;9.10;99.90
27413;DHT22;14871;52.702;5.230;2022-11-27T14:36:31;9.10;99.90
27413;DHT22;14871;52.702;5.230;2022-11-27T14:38:58;9.30;99.90
27413;DHT22;14871;52.702;5.230;2022-11-27T14:41:25;9.30;99.90
27413;DHT22;14871;52.702;5.230;2022-11-27T14:44:00;9.30;99.90
27413;DHT22;14871;52.702;5.230;2022-11-27T14:46:26;9.30;99.90
27413;DHT22;14871;52.702;5.230;2022-11-27T14:48:52;9.20;99.90
27413;DHT22;14871;52.702;5.230;2022-11-27T14:51:24;9.30;99.90
27413;DHT22;14871;52.702;5.230;2022-11-27T14:53:51;9.30;99.90
27413;DHT22;14871;52.702;5.230;2022-11-27T14:56:18;9.30;99.90
27413;DHT22;14871;52.702;5.230;2022-11-27T14:58:53;9.30;99.90
27413;DHT22;14871;52.702;5.230;2022-11-27T15:01:23;9.30;99.90
27413;DHT22;14871;52.702;5.230;2022-11-27T15:06:21;9.30;99.90
27413;DHT22;14871;52.702;5.230;2022-11-27T15:08:47;9.30;99.90
27413;DHT22;14871;52.702;5.230;2022-11-27T15:11:13;9.30;99.90
27413;DHT22;14871;52.702;5.230;2022-11-27T15:13:39;9.40;99.90
27413;DHT22;14871;52.702;5.230;2022-11-27T15:16:06;9.30;99.90
27413;DHT22;14871;52.702;5.230;2022-11-27T15:18:34;9.40;99.90
27413;DHT22;14871;52.702;5.230;2022-11-27T15:21:01;9.30;99.90
27413;DHT22;14871;52.702;5.230;2022-11-27T15:23:29;9.20;99.90
27413;DHT22;14871;52.702;5.230;2022-11-27T15:28:34;9.30;99.90
27413;DHT22;14871;52.702;5.230;2022-11-27T15:31:21;9.50;99.90
27413;DHT22;14871;52.702;5.230;2022-11-27T15:33:54;9.20;99.90
27413;DHT22;14871;52.702;5.230;2022-11-27T15:36:20;9.20;99.90
27413;DHT22;14871;52.702;5.230;2022-11-27T15:38:46;9.20;99.90
27413;DHT22;14871;52.702;5.230;2022-11-27T15:41:25;9.20;99.90
27413;DHT22;14871;52.702;5.230;2022-11-27T15:43:51;9.20;99.90
27413;DHT22;14871;52.702;5.230;2022-11-27T15:46:26;9.20;99.90
27413;DHT22;14871;52.702;5.230;2022-11-27T15:48:54;9.20;99.90
27413;DHT22;14871;52.702;5.230;2022-11-27T15:51:20;9.10;99.90
27413;DHT22;14871;52.702;5.230;2022-11-27T15:53:46;9.00;99.90
27413;DHT22;14871;52.702;5.230;2022-11-27T15:56:13;9.00;99.90
27413;DHT22;14871;52.702;5.230;2022-11-27T15:58:38;9.00;99.90
27413;DHT22;14871;52.702;5.230;2022-11-27T16:01:05;9.00;99.90
27413;DHT22;14871;52.702;5.230;2022-11-27T16:03:31;9.00;99.90
27413;DHT22;14871;52.702;5.230;2022-11-27T16:06:00;9.20;99.90
27413;DHT22;14871;52.702;5.230;2022-11-27T16:08:26;9.10;99.90
27413;DHT22;14871;52.702;5.230;2022-11-27T16:10:51;9.20;99.90
27413;DHT22;14871;52.702;5.230;2022-11-27T16:13:17;9.10;99.90
27413;DHT22;14871;52.702;5.230;2022-11-27T16:15:42;9.00;99.90
27413;DHT22;14871;52.702;5.230;2022-11-27T16:18:07;9.10;99.90
27413;DHT22;14871;52.702;5.230;2022-11-27T16:20:33;9.20;99.90
27413;DHT22;14871;52.702;5.230;2022-11-27T16:22:58;9.10;99.90
27413;DHT22;14871;52.702;5.230;2022-11-27T16:25:24;9.00;99.90
27413;DHT22;14871;52.702;5.230;2022-11-27T16:27:50;8.90;99.90
27413;DHT22;14871;52.702;5.230;2022-11-27T16:30:16;9.10;99.90
27413;DHT22;14871;52.702;5.230;2022-11-27T16:32:44;9.00;99.90
27413;DHT22;14871;52.702;5.230;2022-11-27T16:35:09;9.20;99.90
27413;DHT22;14871;52.702;5.230;2022-11-27T16:37:35;9.10;99.90
27413;DHT22;14871;52.702;5.230;2022-11-27T16:40:00;8.90;99.90
27413;DHT22;14871;52.702;5.230;2022-11-27T16:42:26;8.90;99.90
27413;DHT22;14871;52.702;5.230;2022-11-27T16:44:51;9.10;99.90
27413;DHT22;14871;52.702;5.230;2022-11-27T16:47:17;9.10;99.90
27413;DHT22;14871;52.702;5.230;2022-11-27T16:49:42;9.20;99.90
27413;DHT22;14871;52.702;5.230;2022-11-27T16:52:08;9.00;99.90
27413;DHT22;14871;52.702;5.230;2022-11-27T16:54:35;8.90;99.90
27413;DHT22;14871;52.702;5.230;2022-11-27T16:57:01;9.10;99.90
27413;DHT22;14871;52.702;5.230;2022-11-27T16:59:26;9.10;99.90
27413;DHT22;14871;52.702;5.230;2022-11-27T17:01:52;9.00;99.90
27413;DHT22;14871;52.702;5.230;2022-11-27T17:04:18;9.00;99.90
27413;DHT22;14871;52.702;5.230;2022-11-27T17:06:44;9.10;99.90
27413;DHT22;14871;52.702;5.230;2022-11-27T17:09:10;9.10;99.90
27413;DHT22;14871;52.702;5.230;2022-11-27T17:11:36;9.00;99.90
27413;DHT22;14871;52.702;5.230;2022-11-27T17:14:03;9.00;99.90
27413;DHT22;14871;52.702;5.230;2022-11-27T17:16:30;9.00;99.90
27413;DHT22;14871;52.702;5.230;2022-11-27T17:18:55;9.30;99.90
27413;DHT22;14871;52.702;5.230;2022-11-27T17:21:25;9.20;99.90
27413;DHT22;14871;52.702;5.230;2022-11-27T17:23:55;9.40;99.90
27413;DHT22;14871;52.702;5.230;2022-11-27T17:26:21;9.20;99.90
27413;DHT22;14871;52.702;5.230;2022-11-27T17:28:48;9.20;99.90
27413;DHT22;14871;52.702;5.230;2022-11-27T17:31:14;9.20;99.90